Current Weather

Caslav

Caslav, Czechia (LKCV)

Report from: Thursday, July 18, 2024 1:00 PM UTC
Current time: Thursday, July 18, 2024 1:28 PM UTC

Nearby weather – Weather history – Daily summaries
Weather forecast

Temperature27.0°C (80.6°F)
Heat index27.4°C (81.4°F)
Dew point14.0°C (57.2°F)
Winds 2 kts (1 m/s, 2.3 mph) Vrb
Winds variableWinds variable
Clouds Sky clear
Altimeter30.18 in.Hg (1022 mB)
Relative humidity45 %
Density altitude1,314 ft. (401 m)
Remarks Ceiling and visibility OK
No significant changes expected in the next two hours
Flight conditions Visual Meteorological Conditions
Raw dataLKCV 181300Z VRB02KT CAVOK 27/14 Q1022 NOSIG
An error has occurred. This application may no longer respond until reloaded. Reload 🗙